createdAt,value
2018-11-21T00:00:23.839Z,-1.5
2018-11-21T00:01:23.758Z,-1.5
2018-11-21T00:02:23.667Z,-1.5
2018-11-21T00:03:23.572Z,-1.5
2018-11-21T00:04:23.473Z,-1.5
2018-11-21T00:05:23.391Z,-1.5
2018-11-21T00:06:23.299Z,-1.5
2018-11-21T00:07:23.205Z,-1.5
2018-11-21T00:08:23.101Z,-1.5
2018-11-21T00:09:23.053Z,-1.6
2018-11-21T00:10:23.413Z,-1.6
2018-11-21T00:20:21.353Z,-1
2018-11-21T00:21:21.263Z,-1
2018-11-21T00:22:21.157Z,-1.1
2018-11-21T00:23:21.076Z,-1.1
2018-11-21T00:24:20.961Z,-1.1
2018-11-21T00:25:20.910Z,-1.1
2018-11-21T00:26:20.815Z,-1.2
2018-11-21T00:27:20.722Z,-1.2
2018-11-21T00:28:20.617Z,-1.3
2018-11-21T00:29:20.505Z,-1.4
2018-11-21T00:30:20.839Z,-1.4
2018-11-21T00:31:20.755Z,-1.4
2018-11-21T00:32:20.677Z,-1.5
2018-11-21T00:33:20.581Z,-1.5
2018-11-21T00:34:20.488Z,-1.5
2018-11-21T00:35:20.395Z,-1.5
2018-11-21T00:36:20.304Z,-1.5
2018-11-21T00:37:20.191Z,-1.6
2018-11-21T00:38:20.109Z,-1.6
2018-11-21T00:39:20.005Z,-1.7
2018-11-21T00:40:20.351Z,-1.7
2018-11-21T00:41:20.525Z,-1.7
2018-11-21T00:42:20.427Z,-1.7
2018-11-21T00:43:20.319Z,-1.7
2018-11-21T00:44:20.315Z,-1.7
2018-11-21T00:45:20.227Z,-1.7
2018-11-21T00:46:20.122Z,-1.7
2018-11-21T00:47:20.025Z,-1.8
2018-11-21T00:48:19.943Z,-1.8
2018-11-21T00:49:19.862Z,-1.8
2018-11-21T00:50:20.194Z,-1.8
2018-11-21T00:51:20.108Z,-1.8
2018-11-21T00:52:20.016Z,-1.8
2018-11-21T00:53:19.922Z,-1.8
2018-11-21T00:54:19.835Z,-1.8
2018-11-21T00:55:19.751Z,-1.8
2018-11-21T00:56:19.649Z,-1.8
2018-11-21T00:57:19.547Z,-1.8
2018-11-21T00:58:19.448Z,-1.8
2018-11-21T00:59:19.364Z,-1.8
2018-11-21T01:00:19.720Z,-1.8
2018-11-21T01:01:19.633Z,-1.8
2018-11-21T01:02:19.548Z,-1.8
2018-11-21T01:03:19.444Z,-1.8
2018-11-21T01:04:19.355Z,-1.9
2018-11-21T01:05:19.260Z,-1.9
2018-11-21T01:06:19.167Z,-1.9
2018-11-21T01:07:19.071Z,-1.9
2018-11-21T01:08:18.976Z,-1.9
2018-11-21T01:09:18.877Z,-1.9
2018-11-21T01:10:19.251Z,-1.9
2018-11-21T01:11:19.155Z,-1.9
2018-11-21T01:12:19.050Z,-1.9
2018-11-21T01:13:18.977Z,-1.8
2018-11-21T01:14:18.892Z,-1.8
2018-11-21T01:15:18.805Z,-1.8
2018-11-21T01:16:18.704Z,-1.7
2018-11-21T01:17:18.598Z,-1.7
2018-11-21T01:18:18.491Z,-1.7
2018-11-21T01:19:18.383Z,-1.7
2018-11-21T02:10:07.858Z,-0.6
2018-11-21T02:11:07.786Z,-0.7
2018-11-21T02:12:07.682Z,-0.8
2018-11-21T02:13:07.608Z,-0.9
2018-11-21T02:14:07.503Z,-0.9
2018-11-21T02:15:07.410Z,-1
2018-11-21T02:16:07.322Z,-1
2018-11-21T02:17:07.234Z,-1.1
2018-11-21T02:18:07.122Z,-1.1
2018-11-21T02:19:07.023Z,-1.2
2018-11-21T02:40:05.720Z,-0.5
2018-11-21T02:41:05.630Z,-0.5
2018-11-21T02:42:05.575Z,-0.6
2018-11-21T02:43:05.497Z,-0.7
2018-11-21T02:44:05.462Z,-0.7
2018-11-21T02:45:05.363Z,-0.7
2018-11-21T02:46:05.293Z,-0.8
2018-11-21T02:47:05.198Z,-0.9
2018-11-21T02:48:05.127Z,-0.9
2018-11-21T02:49:05.081Z,-0.9
2018-11-21T02:50:05.453Z,-0.9
2018-11-21T02:51:05.441Z,-1
2018-11-21T02:52:05.363Z,-1
2018-11-21T02:53:05.276Z,-1
2018-11-21T02:54:05.195Z,-1
2018-11-21T02:55:05.128Z,-1.1
2018-11-21T02:56:05.072Z,-1.1
2018-11-21T02:57:04.993Z,-1.1
2018-11-21T02:58:04.910Z,-1.2
2018-11-21T02:59:05.043Z,-1.2
2018-11-21T03:00:05.481Z,-1.2
2018-11-21T03:01:05.631Z,-1.2
2018-11-21T03:02:05.571Z,-1.3
2018-11-21T03:03:05.461Z,-1.3
2018-11-21T03:04:05.357Z,-1.3
2018-11-21T03:05:05.264Z,-1.4
2018-11-21T03:06:05.197Z,-1.4
2018-11-21T03:07:05.122Z,-1.4
2018-11-21T03:08:05.037Z,-1.4
2018-11-21T03:09:04.955Z,-1.4
2018-11-21T03:10:05.550Z,-1.4
2018-11-21T03:11:05.457Z,-1.5
2018-11-21T03:12:05.455Z,-1.5
2018-11-21T03:13:05.363Z,-1.6
2018-11-21T03:14:05.283Z,-1.6
2018-11-21T03:15:05.173Z,-1.6
2018-11-21T03:16:05.068Z,-1.6
2018-11-21T03:17:04.981Z,-1.7
2018-11-21T03:18:04.898Z,-1.8
2018-11-21T03:19:04.810Z,-1.8
2018-11-21T03:30:03.034Z,-1.2
2018-11-21T03:31:02.944Z,-1.2
2018-11-21T03:32:02.900Z,-1.2
2018-11-21T03:33:02.898Z,-1.2
2018-11-21T03:34:02.834Z,-1.3
2018-11-21T03:35:02.748Z,-1.3
2018-11-21T03:36:02.668Z,-1.3
2018-11-21T03:37:02.639Z,-1.4
2018-11-21T03:38:02.556Z,-1.5
2018-11-21T03:39:02.499Z,-1.5
2018-11-21T03:40:02.867Z,-1.5
2018-11-21T03:41:02.777Z,-1.6
2018-11-21T03:42:02.883Z,-1.6
2018-11-21T03:43:02.802Z,-1.7
2018-11-21T03:44:02.712Z,-1.7
2018-11-21T03:45:02.633Z,-1.7
2018-11-21T03:46:02.577Z,-1.7
2018-11-21T03:47:02.485Z,-1.8
2018-11-21T03:48:02.372Z,-1.8
2018-11-21T03:49:02.270Z,-1.8
2018-11-21T03:50:02.640Z,-1.9
2018-11-21T03:51:02.561Z,-1.9
2018-11-21T03:52:02.482Z,-1.9
2018-11-21T03:53:02.410Z,-1.9
2018-11-21T03:54:02.343Z,-1.9
2018-11-21T03:55:02.272Z,-1.9
2018-11-21T03:56:02.216Z,-1.9
2018-11-21T03:57:02.125Z,-1.9
2018-11-21T03:58:02.020Z,-2
2018-11-21T03:59:02.081Z,-2
2018-11-21T04:00:02.450Z,-2
2018-11-21T04:01:02.349Z,-2
2018-11-21T04:02:02.286Z,-2
2018-11-21T04:03:02.209Z,-2.1
2018-11-21T04:04:02.126Z,-2.1
2018-11-21T04:05:02.039Z,-2.1
2018-11-21T04:06:01.945Z,-2.1
2018-11-21T04:07:01.858Z,-2.1
2018-11-21T04:08:01.766Z,-2.1
2018-11-21T04:09:01.688Z,-2.1
2018-11-21T04:10:02.057Z,-2.1
2018-11-21T04:11:01.944Z,-2.2
2018-11-21T04:12:01.878Z,-2.3
2018-11-21T04:13:01.801Z,-2.3
2018-11-21T04:14:01.710Z,-2.3
2018-11-21T04:15:01.622Z,-2.3
2018-11-21T04:16:01.561Z,-2.3
2018-11-21T04:17:01.505Z,-2.3
2018-11-21T04:18:01.423Z,-2.3
2018-11-21T04:19:01.348Z,-2.3
2018-11-21T04:29:59.836Z,-1.5
2018-11-21T04:30:59.864Z,-1.5
2018-11-21T04:31:59.795Z,-1.6
2018-11-21T04:32:59.724Z,-1.6
2018-11-21T04:33:59.644Z,-1.6
2018-11-21T04:34:59.542Z,-1.6
2018-11-21T04:35:59.438Z,-1.7
2018-11-21T04:36:59.363Z,-1.7
2018-11-21T04:37:59.498Z,-1.8
2018-11-21T04:38:59.438Z,-1.8
2018-11-21T04:39:59.771Z,-1.8
2018-11-21T04:40:59.675Z,-1.9
2018-11-21T04:41:59.630Z,-1.9
2018-11-21T04:42:59.528Z,-1.9
2018-11-21T04:43:59.465Z,-1.9
2018-11-21T04:44:59.400Z,-1.9
2018-11-21T04:45:59.302Z,-1.9
2018-11-21T04:46:59.217Z,-1.9
2018-11-21T04:47:59.121Z,-1.9
2018-11-21T04:48:59.028Z,-2
2018-11-21T04:49:59.370Z,-2
2018-11-21T04:50:59.276Z,-2
2018-11-21T04:51:59.192Z,-2
2018-11-21T04:52:59.092Z,-2.1
2018-11-21T04:53:59.002Z,-2.1
2018-11-21T04:54:58.932Z,-2.2
2018-11-21T04:55:58.872Z,-2.2
2018-11-21T04:56:58.783Z,-2.2
2018-11-21T04:57:58.726Z,-2.2
2018-11-21T04:58:58.622Z,-2.2
2018-11-21T04:59:58.982Z,-2.2
2018-11-21T05:00:58.912Z,-2.2
2018-11-21T05:01:58.808Z,-2.2
2018-11-21T05:02:58.708Z,-2.3
2018-11-21T05:03:58.604Z,-2.3
2018-11-21T05:04:58.519Z,-2.2
2018-11-21T05:05:58.420Z,-2.3
2018-11-21T05:06:58.378Z,-2.3
2018-11-21T05:07:58.284Z,-2.3
2018-11-21T05:08:58.178Z,-2.3
2018-11-21T05:19:57.608Z,-1.6
2018-11-21T05:20:57.528Z,-1.7
2018-11-21T05:21:57.439Z,-1.7
2018-11-21T05:22:57.332Z,-1.7
2018-11-21T05:23:57.262Z,-1.8
2018-11-21T05:24:57.163Z,-1.8
2018-11-21T05:25:57.052Z,-1.8
2018-11-21T05:26:56.970Z,-1.9
2018-11-21T05:27:56.873Z,-1.9
2018-11-21T05:28:56.768Z,-1.9
2018-11-21T05:29:57.107Z,-2
2018-11-21T05:30:57.018Z,-1.9
2018-11-21T05:31:56.916Z,-2
2018-11-21T05:32:56.844Z,-2
2018-11-21T05:33:56.750Z,-2
2018-11-21T05:34:56.666Z,-2
2018-11-21T05:35:56.560Z,-2
2018-11-21T05:36:56.457Z,-2
2018-11-21T05:37:56.360Z,-2
2018-11-21T05:38:56.251Z,-2
2018-11-21T05:39:56.572Z,-2.1
2018-11-21T05:40:56.486Z,-2.1
2018-11-21T05:41:56.392Z,-2.1
2018-11-21T05:42:56.290Z,-2.1
2018-11-21T05:43:56.216Z,-2.1
2018-11-21T05:44:56.180Z,-2.1
2018-11-21T05:45:56.088Z,-2.1
2018-11-21T05:46:55.995Z,-2.1
2018-11-21T05:47:55.900Z,-2.1
2018-11-21T05:48:55.798Z,-2.1
2018-11-21T05:49:56.144Z,-2.2
2018-11-21T05:50:56.063Z,-2.1
2018-11-21T05:51:55.964Z,-2.1
2018-11-21T05:52:55.882Z,-2.1
2018-11-21T05:53:55.790Z,-2.1
2018-11-21T05:54:55.680Z,-2.2
2018-11-21T05:55:55.582Z,-2.2
2018-11-21T05:56:55.469Z,-2.3
2018-11-21T05:57:55.349Z,-2.3
2018-11-21T05:58:55.246Z,-2.3
2018-11-21T05:59:55.574Z,-2.4
2018-11-21T06:00:55.466Z,-2.4
2018-11-21T06:01:55.385Z,-2.4
2018-11-21T06:02:55.287Z,-2.4
2018-11-21T06:03:55.183Z,-2.4
2018-11-21T06:04:55.093Z,-2.5
2018-11-21T06:05:54.997Z,-2.5
2018-11-21T06:06:54.906Z,-2.4
2018-11-21T06:07:54.849Z,-2.4
2018-11-21T06:08:54.747Z,-2.4
2018-11-21T06:09:56.413Z,-2.4
2018-11-21T06:10:56.311Z,-2.4
2018-11-21T06:11:56.218Z,-2.4
2018-11-21T06:12:56.147Z,-2.3
2018-11-21T06:13:56.054Z,-2.4
2018-11-21T06:14:55.950Z,-2.4
2018-11-21T06:15:55.853Z,-2.4
2018-11-21T06:16:55.757Z,-2.3
2018-11-21T06:17:55.656Z,-2.3
2018-11-21T06:18:55.572Z,-2.4
2018-11-21T06:19:57.127Z,-2.4
2018-11-21T06:20:57.029Z,-2.4
2018-11-21T06:21:56.951Z,-2.4
2018-11-21T06:22:56.851Z,-2.3
2018-11-21T06:23:56.762Z,-2.3
2018-11-21T06:24:56.667Z,-2.3
2018-11-21T06:25:56.592Z,-2.3
2018-11-21T06:26:56.496Z,-2.3
2018-11-21T06:27:56.405Z,-2.3
2018-11-21T06:28:56.292Z,-2.3
2018-11-21T06:29:56.636Z,-2.3
2018-11-21T06:30:56.537Z,-2.3
2018-11-21T06:31:56.433Z,-2.3
2018-11-21T06:32:56.330Z,-2.3
2018-11-21T06:33:56.226Z,-2.3
2018-11-21T06:34:56.131Z,-2.3
2018-11-21T06:35:56.039Z,-2.3
2018-11-21T06:36:55.937Z,-2.3
2018-11-21T06:37:55.855Z,-2.4
2018-11-21T06:38:55.765Z,-2.4
2018-11-21T06:39:56.107Z,-2.5
2018-11-21T06:40:56.040Z,-2.5
2018-11-21T06:41:56.001Z,-2.4
2018-11-21T06:42:55.901Z,-2.4
2018-11-21T06:43:55.783Z,-2.4
2018-11-21T06:44:55.683Z,-2.4
2018-11-21T06:45:55.606Z,-2.4
2018-11-21T06:46:55.506Z,-2.4
2018-11-21T06:47:55.434Z,-2.4
2018-11-21T06:48:55.321Z,-2.4
2018-11-21T06:49:55.667Z,-2.4
2018-11-21T06:50:55.563Z,-2.3
2018-11-21T06:51:55.479Z,-2.4
2018-11-21T06:52:55.360Z,-2.4
2018-11-21T06:53:55.261Z,-2.3
2018-11-21T06:54:55.154Z,-2.3
2018-11-21T06:55:55.053Z,-2.3
2018-11-21T06:56:54.973Z,-2.3
2018-11-21T06:57:54.896Z,-2.3
2018-11-21T06:58:55.836Z,-2.3
2018-11-21T06:59:56.160Z,-2.3
2018-11-21T07:00:56.046Z,-2.3
2018-11-21T07:01:56.009Z,-2.3
2018-11-21T07:02:55.901Z,-2.2
2018-11-21T07:03:55.797Z,-2.2
2018-11-21T07:04:55.707Z,-2.2
2018-11-21T07:05:55.595Z,-2.2
2018-11-21T07:06:55.504Z,-2.2
2018-11-21T07:07:55.415Z,-2.1
2018-11-21T07:08:55.313Z,-2.1
2018-11-21T07:09:55.631Z,-2.1
2018-11-21T07:10:55.527Z,-2.1
2018-11-21T07:11:55.437Z,-2.2
2018-11-21T07:12:55.365Z,-2.1
2018-11-21T07:13:55.265Z,-2.1
2018-11-21T07:14:55.171Z,-2.1
2018-11-21T07:15:55.073Z,-2
2018-11-21T07:16:54.973Z,-2.1
2018-11-21T07:17:54.865Z,-2.1
2018-11-21T07:18:54.789Z,-2.1
2018-11-21T07:19:55.089Z,-2.1
2018-11-21T07:20:54.988Z,-2.1
2018-11-21T07:21:54.883Z,-2.1
2018-11-21T07:22:54.767Z,-2.1
2018-11-21T07:23:54.695Z,-2
2018-11-21T07:24:54.603Z,-2
2018-11-21T07:25:54.501Z,-2.1
2018-11-21T07:26:54.397Z,-2.1
2018-11-21T07:27:54.285Z,-2.1
2018-11-21T07:28:55.281Z,-2.2
2018-11-21T07:29:55.643Z,-2.2
2018-11-21T07:30:55.555Z,-2.2
2018-11-21T07:31:55.453Z,-2.2
2018-11-21T07:32:55.364Z,-2.2
2018-11-21T07:33:55.279Z,-2.1
2018-11-21T07:34:55.233Z,-2.1
2018-11-21T07:35:55.143Z,-2.1
2018-11-21T07:36:55.049Z,-2.1
2018-11-21T07:37:54.941Z,-2.2
2018-11-21T07:38:54.838Z,-2.2
2018-11-21T07:39:55.196Z,-2.2
2018-11-21T07:40:55.115Z,-2.3
2018-11-21T07:41:55.044Z,-2.2
2018-11-21T07:42:54.953Z,-2.2
2018-11-21T07:43:54.865Z,-2.2
2018-11-21T07:44:54.789Z,-2.1
2018-11-21T07:45:54.710Z,-2.1
2018-11-21T07:46:54.624Z,-2.1
2018-11-21T07:47:54.528Z,-2.1
2018-11-21T07:48:54.431Z,-2.1
2018-11-21T08:09:53.132Z,-0.9
2018-11-21T08:10:53.022Z,-0.9
2018-11-21T08:11:52.936Z,-0.9
2018-11-21T08:12:52.840Z,-1
2018-11-21T08:13:52.744Z,-1
2018-11-21T08:14:52.632Z,-1
2018-11-21T08:15:52.550Z,-1.1
2018-11-21T08:16:52.471Z,-1.2
2018-11-21T08:17:52.356Z,-1.2
2018-11-21T08:18:52.256Z,-1.2
2018-11-21T08:19:52.624Z,-1.3
2018-11-21T08:29:55.158Z,-0.7
2018-11-21T08:30:55.082Z,-0.7
2018-11-21T08:31:54.996Z,-0.8
2018-11-21T08:32:54.900Z,-0.8
2018-11-21T08:33:54.800Z,-1
2018-11-21T08:34:54.694Z,-0.9
2018-11-21T08:35:54.607Z,-0.9
2018-11-21T08:36:54.504Z,-1
2018-11-21T08:37:54.409Z,-1
2018-11-21T08:38:54.301Z,-1
2018-11-21T08:39:54.648Z,-1
2018-11-21T08:40:54.547Z,-1
2018-11-21T08:41:54.490Z,-1.1
2018-11-21T08:42:54.380Z,-1.1
2018-11-21T08:44:54.168Z,-1.1
2018-11-21T08:45:54.081Z,-1.1
2018-11-21T08:46:53.989Z,-1.1
2018-11-21T08:47:53.872Z,-1.1
2018-11-21T08:48:53.789Z,-1.2
2018-11-21T08:49:54.127Z,-1.2
2018-11-21T08:50:54.022Z,-1.2
2018-11-21T08:51:53.945Z,-1.2
2018-11-21T08:52:53.842Z,-1.2
2018-11-21T08:53:53.736Z,-1.3
2018-11-21T08:54:53.622Z,-1.3
2018-11-21T08:55:53.529Z,-1.2
2018-11-21T08:56:53.446Z,-1.2
2018-11-21T08:57:53.368Z,-1.3
2018-11-21T08:58:53.276Z,-1.3
2018-11-21T08:59:53.594Z,-1.4
2018-11-21T09:00:53.480Z,-1.4
2018-11-21T09:01:53.390Z,-1.5
2018-11-21T09:02:53.308Z,-1.4
2018-11-21T09:03:53.198Z,-1.4
2018-11-21T09:04:53.090Z,-1.4
2018-11-21T09:05:52.980Z,-1.4
2018-11-21T09:06:52.861Z,-1.5
2018-11-21T09:07:52.764Z,-1.5
2018-11-21T09:08:52.668Z,-1.5
2018-11-21T09:49:47.162Z,0.1
2018-11-21T09:50:47.106Z,0
2018-11-21T09:51:47.043Z,-0.1
2018-11-21T09:52:51.069Z,-0.1
2018-11-21T09:53:50.994Z,-0.1
2018-11-21T09:54:50.901Z,-0.2
2018-11-21T09:55:50.803Z,-0.2
2018-11-21T09:56:50.743Z,-0.2
2018-11-21T09:57:50.678Z,-0.3
2018-11-21T09:58:50.584Z,-0.3
2018-11-21T09:59:50.943Z,-0.4
2018-11-21T10:00:50.855Z,-0.4
2018-11-21T10:01:50.764Z,-0.3
2018-11-21T10:02:50.691Z,-0.4
2018-11-21T10:03:50.590Z,-0.4
2018-11-21T10:04:50.491Z,-0.4
2018-11-21T10:05:50.408Z,-0.4
2018-11-21T10:06:50.319Z,-0.4
2018-11-21T10:07:50.233Z,-0.5
2018-11-21T10:08:50.140Z,-0.6
2018-11-21T10:09:50.539Z,-0.7
2018-11-21T10:10:50.445Z,-0.7
2018-11-21T10:11:50.355Z,-0.7
2018-11-21T10:12:50.254Z,-0.7
2018-11-21T10:13:50.211Z,-0.6
2018-11-21T10:14:50.124Z,-0.6
2018-11-21T10:15:50.042Z,-0.6
2018-11-21T10:16:49.956Z,-0.6
2018-11-21T10:17:49.859Z,-0.6
2018-11-21T10:18:49.773Z,-0.6
2018-11-21T10:19:50.150Z,-0.6
2018-11-21T10:29:48.317Z,0
2018-11-21T10:30:48.250Z,-0.1
2018-11-21T10:31:48.165Z,-0.1
2018-11-21T10:32:48.063Z,-0.3
2018-11-21T10:33:47.959Z,-0.3
2018-11-21T10:34:47.845Z,-0.2
2018-11-21T10:35:47.775Z,-0.2
2018-11-21T10:36:47.672Z,-0.2
2018-11-21T10:37:47.581Z,-0.2
2018-11-21T10:38:47.499Z,-0.2
2018-11-21T10:39:47.829Z,-0.2
2018-11-21T10:40:47.733Z,-0.2
2018-11-21T10:41:47.659Z,-0.2
2018-11-21T10:42:47.571Z,-0.2
2018-11-21T10:43:47.476Z,-0.2
2018-11-21T10:44:47.399Z,-0.1
2018-11-21T10:45:47.319Z,-0.2
2018-11-21T10:46:47.259Z,-0.1
2018-11-21T10:47:47.165Z,-0.2
2018-11-21T10:48:47.059Z,-0.2
2018-11-21T10:49:47.375Z,-0.3
2018-11-21T10:50:47.277Z,-0.3
2018-11-21T10:51:47.196Z,-0.3
2018-11-21T10:52:47.127Z,-0.3
2018-11-21T10:53:47.018Z,-0.4
2018-11-21T10:54:46.909Z,-0.3
2018-11-21T10:55:46.855Z,-0.3
2018-11-21T10:56:46.777Z,-0.3
2018-11-21T10:57:46.713Z,-0.4
2018-11-21T10:58:46.596Z,-0.3
2018-11-21T10:59:46.959Z,-0.3
2018-11-21T11:09:45.053Z,0.4
2018-11-21T11:10:44.957Z,0.4
2018-11-21T11:11:44.857Z,0.3
2018-11-21T11:12:44.743Z,0.3
2018-11-21T11:13:44.671Z,0.3
2018-11-21T11:14:44.577Z,0.1
2018-11-21T11:15:44.507Z,0.1
2018-11-21T11:16:44.453Z,0.1
2018-11-21T11:17:44.393Z,0
2018-11-21T11:18:44.319Z,0
2018-11-21T11:19:44.671Z,-0.1
2018-11-21T11:20:44.588Z,-0.1
2018-11-21T11:21:44.485Z,-0.1
2018-11-21T11:22:44.398Z,-0.2
2018-11-21T11:23:44.286Z,-0.1
2018-11-21T11:24:44.223Z,-0.2
2018-11-21T11:25:44.110Z,-0.2
2018-11-21T11:26:44.011Z,-0.2
2018-11-21T11:27:43.947Z,-0.3
2018-11-21T11:28:43.911Z,-0.4
2018-11-21T11:29:44.343Z,-0.4
2018-11-21T11:30:44.319Z,-0.4
2018-11-21T11:31:44.234Z,-0.4
2018-11-21T11:32:44.213Z,-0.4
2018-11-21T11:33:44.115Z,-0.3
2018-11-21T11:34:44.011Z,-0.4
2018-11-21T11:35:43.928Z,-0.4
2018-11-21T11:36:43.919Z,-0.3
2018-11-21T11:37:43.813Z,-0.3
2018-11-21T11:38:43.718Z,-0.4
2018-11-21T11:39:44.075Z,-0.3
2018-11-21T11:40:43.989Z,-0.3
2018-11-21T11:41:43.889Z,-0.3
2018-11-21T11:42:43.795Z,-0.2
2018-11-21T11:43:43.670Z,-0.2
2018-11-21T11:44:43.585Z,-0.2
2018-11-21T11:45:43.483Z,-0.1
2018-11-21T11:46:43.377Z,-0.1
2018-11-21T11:47:43.317Z,-0.1
2018-11-21T11:48:43.235Z,-0.1
2018-11-21T11:49:43.587Z,-0.1
2018-11-21T11:50:43.506Z,-0.1
2018-11-21T11:51:43.433Z,-0.1
2018-11-21T11:52:43.365Z,-0.1
2018-11-21T11:53:43.263Z,-0.1
2018-11-21T11:54:43.185Z,-0.1
2018-11-21T11:55:43.075Z,-0.1
2018-11-21T11:56:43.050Z,-0.1
2018-11-21T11:57:43.030Z,-0.1
2018-11-21T11:58:42.947Z,-0.1
2018-11-21T11:59:43.278Z,-0.1
2018-11-21T12:00:43.213Z,-0.1
2018-11-21T12:01:43.103Z,-0.2
2018-11-21T12:02:43.061Z,-0.1
2018-11-21T12:03:43.006Z,-0.1
2018-11-21T12:04:42.896Z,-0.1
2018-11-21T12:05:42.793Z,-0.1
2018-11-21T12:06:42.679Z,-0.1
2018-11-21T12:07:42.586Z,-0.1
2018-11-21T12:08:42.532Z,-0.2
2018-11-21T12:09:42.883Z,-0.2
2018-11-21T12:10:42.780Z,-0.2
2018-11-21T12:11:42.699Z,-0.2
2018-11-21T12:12:42.627Z,-0.1
2018-11-21T12:13:42.549Z,-0.1
2018-11-21T12:14:42.459Z,0
2018-11-21T12:15:42.375Z,0
2018-11-21T12:16:42.311Z,0
2018-11-21T12:17:42.221Z,0
2018-11-21T12:18:42.136Z,0
2018-11-21T12:19:42.504Z,0
2018-11-21T12:20:42.424Z,-0.1
2018-11-21T12:21:42.327Z,0
2018-11-21T12:22:42.227Z,0
2018-11-21T12:23:42.141Z,0
2018-11-21T12:24:42.060Z,0
2018-11-21T12:25:41.965Z,0.1
2018-11-21T12:26:41.865Z,0.1
2018-11-21T12:27:41.769Z,0
2018-11-21T12:28:41.705Z,-0.1
2018-11-21T12:29:42.614Z,-0.1
2018-11-21T12:30:42.549Z,0
2018-11-21T12:31:42.463Z,0
2018-11-21T12:32:42.368Z,0
2018-11-21T12:33:42.288Z,0.1
2018-11-21T12:34:42.199Z,0
2018-11-21T12:35:42.139Z,0
2018-11-21T12:36:42.035Z,0.1
2018-11-21T12:37:41.953Z,0.1
2018-11-21T12:38:41.862Z,0
2018-11-21T12:39:42.219Z,0
2018-11-21T12:59:38.096Z,1.1
2018-11-21T13:00:38.047Z,1.1
2018-11-21T13:01:37.950Z,1.1
2018-11-21T13:02:37.878Z,1
2018-11-21T13:03:37.812Z,0.9
2018-11-21T13:04:37.710Z,0.8
2018-11-21T13:05:37.637Z,0.8
2018-11-21T13:06:37.548Z,0.7
2018-11-21T13:07:37.461Z,0.7
2018-11-21T13:08:37.379Z,0.6
2018-11-21T13:09:37.763Z,0.6
2018-11-21T13:10:37.669Z,0.5
2018-11-21T13:11:37.572Z,0.6
2018-11-21T13:12:37.457Z,0.6
2018-11-21T13:13:37.359Z,0.5
2018-11-21T13:14:37.360Z,0.5
2018-11-21T13:15:40.780Z,0.4
2018-11-21T13:16:43.574Z,0.3
2018-11-21T13:17:43.472Z,0.4
2018-11-21T13:18:43.396Z,0.4
2018-11-21T13:19:43.759Z,0.3
2018-11-21T13:39:45.180Z,1.1
2018-11-21T13:40:45.085Z,1.1
2018-11-21T13:41:45.003Z,0.9
2018-11-21T13:42:44.907Z,0.9
2018-11-21T13:43:44.816Z,0.9
2018-11-21T13:44:44.716Z,0.7
2018-11-21T13:45:44.674Z,0.7
2018-11-21T13:46:44.608Z,0.7
2018-11-21T13:47:44.522Z,0.7
2018-11-21T13:48:44.425Z,0.6
2018-11-21T13:49:44.796Z,0.6
2018-11-21T13:50:44.701Z,0.6
2018-11-21T13:51:44.610Z,0.6
2018-11-21T13:52:44.534Z,0.5
2018-11-21T13:53:44.444Z,0.5
2018-11-21T13:54:44.356Z,0.5
2018-11-21T13:55:44.255Z,0.4
2018-11-21T13:56:44.158Z,0.3
2018-11-21T13:57:44.071Z,0.3
2018-11-21T13:58:43.993Z,0.3
2018-11-21T13:59:44.325Z,0.2
2018-11-21T14:09:42.409Z,0.8
2018-11-21T14:10:42.312Z,0.8
2018-11-21T14:11:42.222Z,0.8
2018-11-21T14:12:42.135Z,0.7
2018-11-21T14:13:42.088Z,0.7
2018-11-21T14:14:41.986Z,0.6
2018-11-21T14:15:41.875Z,0.7
2018-11-21T14:16:41.781Z,0.6
2018-11-21T14:17:41.689Z,0.6
2018-11-21T14:18:41.604Z,0.5
2018-11-21T14:19:41.935Z,0.5
2018-11-21T14:20:41.830Z,0.4
2018-11-21T14:21:41.764Z,0.4
2018-11-21T14:22:41.687Z,0.4
2018-11-21T14:23:41.586Z,0.3
2018-11-21T14:24:41.516Z,0.3
2018-11-21T14:25:41.454Z,0.2
2018-11-21T14:26:41.356Z,0.2
2018-11-21T14:27:41.290Z,0.3
2018-11-21T14:28:41.193Z,0.2
2018-11-21T14:29:41.617Z,0.2
2018-11-21T14:30:41.534Z,0.2
2018-11-21T14:31:41.424Z,0.2
2018-11-21T14:32:41.322Z,0.2
2018-11-21T14:33:42.224Z,0.2
2018-11-21T14:34:42.143Z,0.2
2018-11-21T14:35:43.077Z,0.1
2018-11-21T14:36:45.889Z,0.1
2018-11-21T14:37:45.786Z,0.1
2018-11-21T14:38:45.907Z,0
2018-11-21T14:39:46.248Z,0
2018-11-21T14:40:46.443Z,0
2018-11-21T14:41:46.391Z,-0.1
2018-11-21T14:42:46.345Z,-0.1
2018-11-21T14:43:46.260Z,-0.1
2018-11-21T14:44:51.098Z,-0.1
2018-11-21T14:45:51.084Z,-0.1
2018-11-21T14:46:51.013Z,-0.1
2018-11-21T14:47:51.633Z,-0.1
2018-11-21T14:48:51.558Z,-0.2
2018-11-21T14:49:51.974Z,-0.2
2018-11-21T14:50:52.897Z,-0.4
2018-11-21T14:51:53.067Z,-0.2
2018-11-21T14:52:53.252Z,-0.3
2018-11-21T14:53:53.393Z,-0.3
2018-11-21T14:54:53.307Z,-0.6
2018-11-21T14:55:53.216Z,-0.5
2018-11-21T14:56:58.120Z,-0.5
2018-11-21T14:57:58.277Z,-0.4
2018-11-21T14:58:58.191Z,-0.4
2018-11-21T14:59:58.576Z,-0.4
2018-11-21T15:00:58.502Z,-0.4
2018-11-21T15:01:58.450Z,-0.3
2018-11-21T15:03:03.051Z,-0.4
2018-11-21T15:04:12.239Z,-0.5
2018-11-21T15:05:12.164Z,-0.5
2018-11-21T15:06:20.908Z,-0.5
2018-11-21T15:07:29.711Z,-0.4
2018-11-21T15:08:29.865Z,-0.4
2018-11-21T15:09:30.049Z,-0.4
2018-11-21T15:10:30.424Z,-0.3
2018-11-21T15:11:30.609Z,-0.4
2018-11-21T15:12:30.516Z,-0.4
2018-11-21T15:13:30.441Z,-0.3
2018-11-21T15:14:31.041Z,-0.3
2018-11-21T15:15:30.970Z,-0.3
2018-11-21T15:16:30.858Z,-0.3
2018-11-21T15:17:30.788Z,-0.3
2018-11-21T15:18:30.698Z,-0.3
2018-11-21T15:19:30.619Z,-0.2
2018-11-21T15:20:30.970Z,-0.2
2018-11-21T15:21:30.877Z,-0.2
2018-11-21T15:22:30.813Z,-0.2
2018-11-21T15:23:30.756Z,-0.2
2018-11-21T15:24:30.647Z,-0.1
2018-11-21T15:25:30.555Z,-0.1
2018-11-21T15:26:30.481Z,-0.1
2018-11-21T15:27:30.401Z,-0.1
2018-11-21T15:28:30.307Z,-0.1
2018-11-21T15:29:30.238Z,-0.1
2018-11-21T15:30:30.590Z,-0.1
2018-11-21T15:31:30.491Z,-0.1
2018-11-21T15:32:30.430Z,-0.1
2018-11-21T15:33:30.341Z,-0.1
2018-11-21T15:34:30.254Z,-0.1
2018-11-21T15:35:30.141Z,-0.1
2018-11-21T15:36:30.153Z,-0.1
2018-11-21T15:37:30.476Z,-0.1
2018-11-21T15:38:30.453Z,-0.1
2018-11-21T15:39:30.397Z,-0.1
2018-11-21T15:40:30.752Z,-0.2
2018-11-21T16:10:29.849Z,1.1
2018-11-21T16:11:29.764Z,1
2018-11-21T16:12:29.679Z,0.9
2018-11-21T16:13:29.593Z,0.9
2018-11-21T16:14:29.497Z,0.8
2018-11-21T16:15:36.161Z,0.8
2018-11-21T16:16:36.062Z,0.7
2018-11-21T16:17:35.971Z,0.7
2018-11-21T16:18:35.875Z,0.6
2018-11-21T16:19:35.798Z,0.5
2018-11-21T16:20:36.131Z,0.5
2018-11-21T16:21:36.060Z,0.4
2018-11-21T16:22:35.956Z,0.4
2018-11-21T16:23:35.865Z,0.4
2018-11-21T16:24:35.775Z,0.4
2018-11-21T16:25:35.693Z,0.4
2018-11-21T16:26:35.610Z,0.3
2018-11-21T16:27:35.540Z,0.3
2018-11-21T16:28:35.450Z,0.2
2018-11-21T16:29:37.672Z,0.2
2018-11-21T16:30:38.021Z,0.2
2018-11-21T16:31:37.955Z,0.1
2018-11-21T16:32:37.867Z,0.1
2018-11-21T16:33:37.831Z,0.1
2018-11-21T16:34:37.756Z,0.1
2018-11-21T16:35:37.678Z,0.1
2018-11-21T16:36:37.644Z,0.1
2018-11-21T16:37:37.575Z,0.1
2018-11-21T16:38:37.491Z,0.1
2018-11-21T16:39:37.404Z,0.1
2018-11-21T16:40:37.777Z,0.1
2018-11-21T16:41:37.688Z,0.1
2018-11-21T16:42:37.605Z,0.1
2018-11-21T16:43:38.783Z,0.1
2018-11-21T16:44:38.699Z,0.1
2018-11-21T16:45:38.604Z,0.1
2018-11-21T16:46:38.523Z,0.1
2018-11-21T16:47:38.440Z,0
2018-11-21T16:48:38.342Z,0
2018-11-21T16:49:38.242Z,0
2018-11-21T16:50:38.624Z,0
2018-11-21T16:51:38.533Z,-0.1
2018-11-21T16:52:38.422Z,-0.1
2018-11-21T16:53:38.386Z,-0.1
2018-11-21T16:54:38.318Z,-0.1
2018-11-21T16:55:38.223Z,-0.1
2018-11-21T16:56:38.135Z,-0.2
2018-11-21T16:57:38.043Z,-0.1
2018-11-21T16:58:37.982Z,-0.1
2018-11-21T16:59:37.938Z,-0.1
2018-11-21T17:00:38.292Z,-0.1
2018-11-21T17:01:38.209Z,-0.1
2018-11-21T17:02:38.117Z,-0.1
2018-11-21T17:03:38.068Z,-0.1
2018-11-21T17:04:37.972Z,-0.1
2018-11-21T17:05:37.895Z,-0.1
2018-11-21T17:06:37.804Z,-0.1
2018-11-21T17:07:37.704Z,-0.1
2018-11-21T17:08:37.712Z,-0.1
2018-11-21T17:09:37.678Z,-0.1
2018-11-21T17:10:38.009Z,0
2018-11-21T17:11:37.927Z,0
2018-11-21T17:12:37.829Z,0
2018-11-21T17:13:37.747Z,-0.1
2018-11-21T17:14:37.692Z,-0.1
2018-11-21T17:15:37.623Z,-0.1
2018-11-21T17:16:37.598Z,-0.1
2018-11-21T17:17:37.577Z,-0.2
2018-11-21T17:18:37.498Z,-0.2
2018-11-21T17:19:37.414Z,-0.2
2018-11-21T17:20:37.837Z,-0.3
2018-11-21T17:21:37.823Z,-0.3
2018-11-21T17:22:37.769Z,-0.3
2018-11-21T17:23:37.759Z,-0.3
2018-11-21T17:24:37.763Z,-0.3
2018-11-21T17:25:37.739Z,-0.2
2018-11-21T17:26:37.650Z,-0.2
2018-11-21T17:27:37.555Z,-0.2
2018-11-21T17:28:37.468Z,-0.2
2018-11-21T17:29:37.424Z,-0.2
2018-11-21T17:30:37.934Z,-0.2
2018-11-21T17:31:37.829Z,-0.2
2018-11-21T17:32:37.725Z,-0.2
2018-11-21T17:33:37.651Z,-0.2
2018-11-21T17:34:38.601Z,-0.2
2018-11-21T17:35:38.584Z,-0.2
2018-11-21T17:36:38.503Z,-0.2
2018-11-21T17:37:38.572Z,-0.2
2018-11-21T17:38:38.673Z,-0.1
2018-11-21T17:39:38.558Z,-0.1
2018-11-21T17:40:38.926Z,-0.1
2018-11-21T17:41:38.851Z,-0.1
2018-11-21T17:42:38.750Z,-0.1
2018-11-21T17:43:38.641Z,-0.1
2018-11-21T17:44:38.626Z,0
2018-11-21T17:45:38.595Z,-0.1
2018-11-21T17:46:38.541Z,-0.1
2018-11-21T17:47:38.480Z,-0.1
2018-11-21T17:48:38.409Z,-0.1
2018-11-21T17:49:38.384Z,-0.1
2018-11-21T17:50:38.724Z,-0.1
2018-11-21T17:51:38.635Z,-0.1
2018-11-21T17:52:38.600Z,-0.1
2018-11-21T17:53:38.515Z,0
2018-11-21T17:54:38.437Z,-0.1
2018-11-21T17:55:38.377Z,-0.1
2018-11-21T17:56:38.284Z,-0.1
2018-11-21T17:57:38.230Z,-0.1
2018-11-21T17:58:38.169Z,-0.2
2018-11-21T17:59:38.098Z,-0.1
2018-11-21T18:00:38.468Z,3
2018-11-21T18:01:38.376Z,-0.1